Time;durP1;ratioP1;P1;durP2;ratioP2;P2;SDS_P1;SDS_P2;PMS_P1;PMS_P2;Temp;Humidity;BMP_temperature;BMP_pressure;BME280_temperature;BME280_humidity;BME280_pressure;Samples;Min_cycle;Max_cycle;Signal;HPM_P1;HPM_P2
2021/12/04 00:00:36;;;;;;;2.33;2.00;;;;;;;;;;5106917;28;20574;-76
2021/12/04 00:03:03;;;;;;;2.50;2.08;;;;;;;;;;5100997;28;20193;-76
2021/12/04 00:05:31;;;;;;;2.33;2.08;;;;;;;;;;5087357;28;20677;-75
2021/12/04 00:07:58;;;;;;;2.15;1.95;;;;;;;;;;5086847;28;20606;-73
2021/12/04 00:10:29;;;;;;;2.25;1.75;;;;;;;;;;5089226;28;20619;-76
2021/12/04 00:12:56;;;;;;;1.63;1.52;;;;;;;;;;5094250;28;20196;-73
2021/12/04 00:15:24;;;;;;;2.05;1.80;;;;;;;;;;5091518;28;20201;-74
2021/12/04 00:17:52;;;;;;;2.22;1.60;;;;;;;;;;5092297;28;20580;-75
2021/12/04 00:20:19;;;;;;;1.95;1.83;;;;;;;;;;5090474;28;20217;-73
2021/12/04 00:22:46;;;;;;;1.90;1.70;;;;;;;;;;5088600;28;20190;-74
2021/12/04 00:25:13;;;;;;;1.90;1.58;;;;;;;;;;5088432;28;20197;-75
2021/12/04 00:27:41;;;;;;;2.00;1.60;;;;;;;;;;5103256;28;20743;-74
2021/12/04 00:30:09;;;;;;;3.30;1.95;;;;;;;;;;5106392;28;20189;-74
2021/12/04 00:32:41;;;;;;;3.35;2.90;;;;;;;;;;5112400;28;20547;-76
2021/12/04 00:35:14;;;;;;;2.10;1.90;;;;;;;;;;5094425;28;20205;-74
2021/12/04 00:38:01;;;;;;;1.77;1.67;;;;;;;;;;5088742;28;20377;-75
2021/12/04 00:43:21;;;;;;;1.92;1.60;;;;;;;;;;5097813;28;20212;-76
2021/12/04 00:51:12;;;;;;;1.60;1.50;;;;;;;;;;5103374;28;20234;-74
2021/12/04 00:53:40;;;;;;;1.75;1.50;;;;;;;;;;5072812;28;20202;-75
2021/12/04 00:56:07;;;;;;;1.95;1.40;;;;;;;;;;5083465;28;20197;-76
2021/12/04 00:58:36;;;;;;;1.60;1.50;;;;;;;;;;5086831;28;20209;-75
2021/12/04 01:01:03;;;;;;;1.30;1.20;;;;;;;;;;5089737;28;20294;-74
2021/12/04 01:03:35;;;;;;;1.30;1.20;;;;;;;;;;5102951;28;20193;-74
2021/12/04 01:06:02;;;;;;;1.42;1.30;;;;;;;;;;5103117;28;20246;-74
2021/12/04 01:08:29;;;;;;;1.88;1.40;;;;;;;;;;5090188;28;20310;-76
2021/12/04 01:10:56;;;;;;;1.40;1.30;;;;;;;;;;5072977;28;20209;-76
2021/12/04 01:13:24;;;;;;;1.58;1.48;;;;;;;;;;5087724;28;20197;-73
2021/12/04 01:15:51;;;;;;;1.55;1.30;;;;;;;;;;5087504;28;20189;-76
2021/12/04 01:18:18;;;;;;;1.50;1.35;;;;;;;;;;5088872;28;20229;-76
2021/12/04 01:20:47;;;;;;;1.60;1.35;;;;;;;;;;5089695;28;20278;-74
2021/12/04 01:23:15;;;;;;;1.50;1.40;;;;;;;;;;5091952;28;20200;-75
2021/12/04 01:25:43;;;;;;;1.42;1.33;;;;;;;;;;5090619;28;20735;-76
2021/12/04 01:28:10;;;;;;;2.28;1.65;;;;;;;;;;5092366;28;20209;-77
2021/12/04 01:30:37;;;;;;;2.83;2.13;;;;;;;;;;5091922;28;20193;-74
2021/12/04 01:33:05;;;;;;;2.55;2.00;;;;;;;;;;5087287;28;20197;-75
2021/12/04 01:35:32;;;;;;;3.00;2.42;;;;;;;;;;5085142;28;20566;-77
2021/12/04 01:38:01;;;;;;;2.58;2.20;;;;;;;;;;5084026;28;20201;-77
2021/12/04 01:40:28;;;;;;;2.63;2.22;;;;;;;;;;5090091;28;20598;-74
2021/12/04 01:42:55;;;;;;;2.10;1.90;;;;;;;;;;5088964;28;20201;-74
2021/12/04 01:45:23;;;;;;;2.78;2.08;;;;;;;;;;5092150;28;20190;-77
2021/12/04 01:47:50;;;;;;;1.95;1.80;;;;;;;;;;5094241;28;20249;-75
2021/12/04 01:50:17;;;;;;;1.88;1.75;;;;;;;;;;5086422;28;20194;-75
2021/12/04 01:52:44;;;;;;;2.25;1.85;;;;;;;;;;5087473;28;20193;-75
2021/12/04 01:55:13;;;;;;;2.40;2.20;;;;;;;;;;5098883;28;20189;-77
2021/12/04 01:57:40;;;;;;;2.50;2.30;;;;;;;;;;5105883;28;20213;-75
2021/12/04 02:00:08;;;;;;;2.50;2.30;;;;;;;;;;5106137;28;20227;-76
2021/12/04 02:02:35;;;;;;;2.72;2.00;;;;;;;;;;5107950;28;20200;-76
2021/12/04 02:05:03;;;;;;;5.10;2.00;;;;;;;;;;5091711;28;20582;-77
2021/12/04 02:07:30;;;;;;;2.20;2.00;;;;;;;;;;5096808;28;20216;-77
2021/12/04 02:09:58;;;;;;;2.38;2.15;;;;;;;;;;5104783;28;20347;-74
2021/12/04 02:12:26;;;;;;;3.65;2.00;;;;;;;;;;5085719;28;20209;-75
2021/12/04 02:14:53;;;;;;;2.67;2.47;;;;;;;;;;5085340;28;20292;-74
2021/12/04 02:17:20;;;;;;;3.05;2.05;;;;;;;;;;5087955;28;20221;-75
2021/12/04 02:19:48;;;;;;;1.80;1.70;;;;;;;;;;5087973;28;20758;-77
2021/12/04 02:22:17;;;;;;;2.10;1.90;;;;;;;;;;5089663;28;20592;-75
2021/12/04 02:24:44;;;;;;;3.38;2.33;;;;;;;;;;5089920;28;20737;-75
2021/12/04 02:27:13;;;;;;;2.60;2.35;;;;;;;;;;5093592;28;20216;-74
2021/12/04 02:29:46;;;;;;;5.25;2.58;;;;;;;;;;5112408;28;20219;-76
2021/12/04 02:32:14;;;;;;;2.97;1.70;;;;;;;;;;5090685;28;20676;-79
2021/12/04 02:34:41;;;;;;;3.30;2.45;;;;;;;;;;5089058;28;20186;-80
2021/12/04 02:37:09;;;;;;;7.40;2.22;;;;;;;;;;5084714;28;20209;-78
2021/12/04 02:39:42;;;;;;;2.63;2.20;;;;;;;;;;5087727;28;20193;-77
2021/12/04 02:42:20;;;;;;;3.35;2.42;;;;;;;;;;5098322;28;20204;-74
2021/12/04 02:44:48;;;;;;;5.78;2.30;;;;;;;;;;5108581;28;20558;-75
2021/12/04 02:47:15;;;;;;;4.43;2.67;;;;;;;;;;5109520;28;20224;-78
2021/12/04 02:49:43;;;;;;;2.95;2.38;;;;;;;;;;5087892;28;20200;-78
2021/12/04 02:52:14;;;;;;;3.10;2.80;;;;;;;;;;5083633;28;20658;-77
2021/12/04 02:54:42;;;;;;;2.30;2.10;;;;;;;;;;5090312;28;20707;-77
2021/12/04 02:57:13;;;;;;;5.55;2.40;;;;;;;;;;5109514;28;20216;-76
2021/12/04 02:59:40;;;;;;;3.20;2.65;;;;;;;;;;5105693;28;20200;-78
2021/12/04 03:02:10;;;;;;;2.97;2.78;;;;;;;;;;5102515;28;20193;-76
2021/12/04 03:04:38;;;;;;;3.97;3.22;;;;;;;;;;5097939;28;20302;-75
2021/12/04 03:07:05;;;;;;;3.80;2.92;;;;;;;;;;5085580;28;20223;-76
2021/12/04 03:09:32;;;;;;;3.47;3.17;;;;;;;;;;5083863;28;20196;-75
2021/12/04 03:12:04;;;;;;;3.05;2.75;;;;;;;;;;5108575;28;20200;-80
2021/12/04 03:14:31;;;;;;;4.40;4.00;;;;;;;;;;5096678;28;20190;-78
2021/12/04 03:16:59;;;;;;;3.28;2.97;;;;;;;;;;5088945;28;20252;-75
2021/12/04 03:19:27;;;;;;;4.97;2.85;;;;;;;;;;5086735;28;20212;-76
2021/12/04 03:21:55;;;;;;;3.97;3.45;;;;;;;;;;5103587;28;20216;-77
2021/12/04 03:24:23;;;;;;;3.17;2.67;;;;;;;;;;5084332;28;20706;-78
2021/12/04 03:26:51;;;;;;;4.63;3.20;;;;;;;;;;5086309;28;20231;-76
2021/12/04 03:29:22;;;;;;;3.42;3.13;;;;;;;;;;5088347;28;20201;-75
2021/12/04 03:32:11;;;;;;;5.03;3.65;;;;;;;;;;5088094;28;20548;-76
2021/12/04 03:40:08;;;;;;;3.58;3.05;;;;;;;;;;5070278;28;20197;-77
2021/12/04 03:42:36;;;;;;;4.10;3.30;;;;;;;;;;5084311;28;20296;-77
2021/12/04 03:45:05;;;;;;;3.95;3.28;;;;;;;;;;5088311;28;20207;-75
2021/12/04 03:47:32;;;;;;;5.22;3.40;;;;;;;;;;5087715;28;20224;-74
2021/12/04 03:49:59;;;;;;;6.80;3.25;;;;;;;;;;5091564;28;20721;-75
2021/12/04 03:52:27;;;;;;;5.05;3.08;;;;;;;;;;5105816;28;20203;-75
2021/12/04 03:54:54;;;;;;;3.58;3.28;;;;;;;;;;5096282;28;20212;-78
2021/12/04 03:57:21;;;;;;;4.05;2.95;;;;;;;;;;5082835;28;20217;-78
2021/12/04 03:59:49;;;;;;;4.97;3.25;;;;;;;;;;5085072;28;20194;-77
2021/12/04 04:02:18;;;;;;;3.08;2.80;;;;;;;;;;5088453;28;20193;-75
2021/12/04 04:04:46;;;;;;;3.70;3.03;;;;;;;;;;5093522;28;20188;-78
2021/12/04 04:07:13;;;;;;;2.95;2.65;;;;;;;;;;5097809;28;20208;-77
2021/12/04 04:09:40;;;;;;;3.00;2.70;;;;;;;;;;5103935;28;20662;-73
2021/12/04 04:12:09;;;;;;;2.97;2.70;;;;;;;;;;5095788;28;20197;-74
2021/12/04 04:14:36;;;;;;;3.15;2.67;;;;;;;;;;5111358;28;20246;-75
2021/12/04 04:17:04;;;;;;;3.60;3.08;;;;;;;;;;5104816;28;20228;-77
2021/12/04 04:19:33;;;;;;;3.45;2.90;;;;;;;;;;5084275;28;20549;-76
2021/12/04 04:22:00;;;;;;;4.88;3.17;;;;;;;;;;5083524;28;20240;-75
2021/12/04 04:24:28;;;;;;;5.03;2.70;;;;;;;;;;5089411;28;20212;-76
2021/12/04 04:26:56;;;;;;;2.92;2.60;;;;;;;;;;5091206;28;20573;-76
2021/12/04 04:29:25;;;;;;;3.13;2.70;;;;;;;;;;5103279;28;20204;-73
2021/12/04 04:31:54;;;;;;;3.20;2.83;;;;;;;;;;5107869;28;20193;-74
2021/12/04 04:34:27;;;;;;;2.83;2.63;;;;;;;;;;5093933;28;20727;-76
2021/12/04 04:37:07;;;;;;;4.05;2.55;;;;;;;;;;5092865;28;20274;-73
2021/12/04 04:40:08;;;;;;;3.25;2.85;;;;;;;;;;5090081;28;20272;-74
2021/12/04 04:58:55;;;;;;;4.30;2.67;;;;;;;;;;5086160;28;20197;-77
2021/12/04 05:01:32;;;;;;;4.10;3.20;;;;;;;;;;5089840;28;20225;-74
2021/12/04 05:12:15;;;;;;;3.63;2.80;;;;;;;;;;5084643;28;20654;-73
2021/12/04 05:14:43;;;;;;;3.20;2.50;;;;;;;;;;5088710;28;20193;-73
2021/12/04 05:17:14;;;;;;;2.45;2.25;;;;;;;;;;5089291;28;20290;-74
2021/12/04 05:19:43;;;;;;;3.03;2.40;;;;;;;;;;5091145;28;20665;-74
2021/12/04 05:22:12;;;;;;;2.30;2.15;;;;;;;;;;5090903;28;20278;-74
2021/12/04 05:24:42;;;;;;;2.72;2.35;;;;;;;;;;5109822;28;20204;-76
2021/12/04 05:27:10;;;;;;;2.58;2.38;;;;;;;;;;5078550;28;20225;-75
2021/12/04 05:29:37;;;;;;;3.17;2.35;;;;;;;;;;5084471;28;20557;-76
2021/12/04 05:32:06;;;;;;;3.75;2.60;;;;;;;;;;5089341;28;20198;-75
2021/12/04 05:34:33;;;;;;;3.30;2.75;;;;;;;;;;5088193;28;20525;-73
2021/12/04 05:37:01;;;;;;;3.58;2.35;;;;;;;;;;5111080;28;20205;-76
2021/12/04 05:39:28;;;;;;;3.58;3.22;;;;;;;;;;5110625;28;20516;-75
2021/12/04 05:41:57;;;;;;;2.50;2.30;;;;;;;;;;5099526;28;20229;-75
2021/12/04 05:44:26;;;;;;;3.22;2.65;;;;;;;;;;5087563;28;20200;-76
2021/12/04 05:46:57;;;;;;;4.13;3.10;;;;;;;;;;5088000;28;20212;-73
2021/12/04 05:49:28;;;;;;;3.92;2.80;;;;;;;;;;5103069;28;20196;-74
2021/12/04 05:57:18;;;;;;;3.35;2.83;;;;;;;;;;5103625;28;20617;-73
2021/12/04 05:59:47;;;;;;;4.05;3.03;;;;;;;;;;5089740;28;21984;-75
2021/12/04 06:02:16;;;;;;;3.45;3.15;;;;;;;;;;5086075;28;20237;-76
2021/12/04 06:04:43;;;;;;;4.30;3.10;;;;;;;;;;5093938;28;20804;-76
2021/12/04 06:07:10;;;;;;;4.03;3.72;;;;;;;;;;5107872;27;20216;-75
2021/12/04 06:09:37;;;;;;;3.55;3.10;;;;;;;;;;5104560;28;20562;-77
2021/12/04 06:12:07;;;;;;;4.20;3.28;;;;;;;;;;5110458;28;20193;-76
2021/12/04 06:14:36;;;;;;;3.22;2.92;;;;;;;;;;5099255;28;20197;-75
2021/12/04 06:17:04;;;;;;;4.53;3.72;;;;;;;;;;5090858;28;20294;-76
2021/12/04 06:24:53;;;;;;;3.78;3.00;;;;;;;;;;5084672;28;20193;-73
2021/12/04 06:27:20;;;;;;;4.97;3.30;;;;;;;;;;5094556;28;20207;-73
2021/12/04 06:29:49;;;;;;;6.97;3.40;;;;;;;;;;5110090;27;20547;-74
2021/12/04 06:32:16;;;;;;;3.95;3.55;;;;;;;;;;5110265;28;20192;-73
2021/12/04 06:34:43;;;;;;;3.17;2.88;;;;;;;;;;5109362;28;20216;-72
2021/12/04 06:37:11;;;;;;;3.70;2.83;;;;;;;;;;5094738;28;20225;-73
2021/12/04 06:39:38;;;;;;;3.10;2.80;;;;;;;;;;5092235;28;20556;-75
2021/12/04 06:44:46;;;;;;;4.50;3.35;;;;;;;;;;5052678;28;20641;-77
2021/12/04 06:47:15;;;;;;;3.58;3.28;;;;;;;;;;5051814;28;20206;-75
2021/12/04 06:49:43;;;;;;;3.60;3.30;;;;;;;;;;5056479;28;20197;-75
2021/12/04 06:52:15;;;;;;;3.40;3.10;;;;;;;;;;5085940;28;20193;-77
2021/12/04 06:54:49;;;;;;;3.65;3.10;;;;;;;;;;5086491;28;20570;-73
2021/12/04 06:57:17;;;;;;;3.10;2.80;;;;;;;;;;5084853;28;20251;-74
2021/12/04 06:59:46;;;;;;;3.30;3.00;;;;;;;;;;5067439;28;20237;-73
2021/12/04 07:02:15;;;;;;;3.72;3.33;;;;;;;;;;5083894;28;20221;-72
2021/12/04 07:04:43;;;;;;;3.97;3.45;;;;;;;;;;5082591;28;20201;-75
2021/12/04 07:07:11;;;;;;;3.53;3.17;;;;;;;;;;5052923;28;20226;-73
2021/12/04 07:09:39;;;;;;;3.33;2.97;;;;;;;;;;5057725;28;20200;-77
2021/12/04 07:12:07;;;;;;;3.35;2.90;;;;;;;;;;5066473;28;20182;-75
2021/12/04 07:14:34;;;;;;;4.72;3.85;;;;;;;;;;5083100;28;20280;-74
2021/12/04 07:17:03;;;;;;;3.63;2.90;;;;;;;;;;5108303;28;20225;-73
2021/12/04 07:19:32;;;;;;;3.80;3.13;;;;;;;;;;5106675;28;20284;-74
2021/12/04 07:21:59;;;;;;;5.00;3.35;;;;;;;;;;5110152;28;20228;-73
2021/12/04 07:24:26;;;;;;;3.20;2.35;;;;;;;;;;5110048;28;20199;-73
2021/12/04 07:26:54;;;;;;;5.32;3.05;;;;;;;;;;5106626;28;20686;-74
2021/12/04 07:29:21;;;;;;;3.35;2.92;;;;;;;;;;5083416;28;20216;-73
2021/12/04 07:31:48;;;;;;;3.53;2.88;;;;;;;;;;5087151;28;20200;-75
2021/12/04 07:34:15;;;;;;;3.90;2.95;;;;;;;;;;5091309;28;20196;-75
2021/12/04 07:36:44;;;;;;;3.78;3.30;;;;;;;;;;5107971;28;20210;-74
2021/12/04 07:39:11;;;;;;;3.85;3.15;;;;;;;;;;5106627;28;20200;-77
2021/12/04 07:41:42;;;;;;;3.85;3.30;;;;;;;;;;5104425;28;20532;-74
2021/12/04 07:44:10;;;;;;;3.30;3.00;;;;;;;;;;5089731;28;20201;-73
2021/12/04 07:46:37;;;;;;;3.42;3.03;;;;;;;;;;5084782;28;20649;-75
2021/12/04 07:49:05;;;;;;;2.80;2.47;;;;;;;;;;5086167;28;20201;-74
2021/12/04 07:51:32;;;;;;;3.90;2.85;;;;;;;;;;5088599;28;20196;-77
2021/12/04 07:54:00;;;;;;;5.18;3.33;;;;;;;;;;5087613;28;20553;-76
2021/12/04 07:56:28;;;;;;;3.55;2.88;;;;;;;;;;5094603;28;20189;-76
2021/12/04 07:58:55;;;;;;;4.65;3.10;;;;;;;;;;5105530;28;20224;-73
2021/12/04 08:01:23;;;;;;;3.83;3.28;;;;;;;;;;5088984;28;20224;-75
2021/12/04 08:03:50;;;;;;;3.17;2.80;;;;;;;;;;5088920;28;20193;-76
2021/12/04 08:06:18;;;;;;;3.78;3.40;;;;;;;;;;5090596;28;20288;-75
2021/12/04 08:08:45;;;;;;;3.70;3.40;;;;;;;;;;5091799;28;20196;-74
2021/12/04 08:11:13;;;;;;;2.75;2.50;;;;;;;;;;5105663;28;20201;-77
2021/12/04 08:13:41;;;;;;;3.00;2.70;;;;;;;;;;5092074;28;20204;-74
2021/12/04 08:16:09;;;;;;;4.35;3.10;;;;;;;;;;5090242;28;20208;-75
2021/12/04 08:18:36;;;;;;;3.38;3.08;;;;;;;;;;5087232;28;20259;-76
2021/12/04 08:21:03;;;;;;;3.58;2.90;;;;;;;;;;5091193;28;20186;-75
2021/12/04 08:23:30;;;;;;;3.83;3.50;;;;;;;;;;5092195;28;20646;-77
2021/12/04 08:25:58;;;;;;;3.35;3.05;;;;;;;;;;5109320;28;20197;-79
2021/12/04 08:28:26;;;;;;;4.20;3.25;;;;;;;;;;5111911;28;20208;-75
2021/12/04 08:30:54;;;;;;;4.07;3.20;;;;;;;;;;5095063;28;20278;-74
2021/12/04 08:33:21;;;;;;;3.10;2.80;;;;;;;;;;5085998;28;20676;-75
2021/12/04 08:35:49;;;;;;;3.70;2.80;;;;;;;;;;5087445;28;20197;-76
2021/12/04 08:38:16;;;;;;;3.20;2.40;;;;;;;;;;5090368;28;20210;-74
2021/12/04 08:40:44;;;;;;;3.42;2.90;;;;;;;;;;5090646;28;20204;-79
2021/12/04 08:43:12;;;;;;;3.15;2.80;;;;;;;;;;5081130;28;20572;-77
2021/12/04 08:45:41;;;;;;;3.40;3.10;;;;;;;;;;5090481;28;20197;-75
2021/12/04 08:48:08;;;;;;;3.58;3.08;;;;;;;;;;5085388;28;20212;-78
2021/12/04 08:50:36;;;;;;;4.40;3.05;;;;;;;;;;5087081;28;20199;-76
2021/12/04 08:53:05;;;;;;;3.97;3.40;;;;;;;;;;5090250;28;20193;-77
2021/12/04 08:55:33;;;;;;;3.47;3.17;;;;;;;;;;5104831;28;20193;-78
2021/12/04 08:58:00;;;;;;;4.05;3.10;;;;;;;;;;5092667;28;20233;-77
2021/12/04 09:00:29;;;;;;;3.85;3.45;;;;;;;;;;5087189;28;20185;-76
2021/12/04 09:02:58;;;;;;;3.70;3.40;;;;;;;;;;5089585;28;20236;-75
2021/12/04 09:05:26;;;;;;;4.18;3.78;;;;;;;;;;5082909;28;20200;-73
2021/12/04 09:07:54;;;;;;;3.75;3.45;;;;;;;;;;5083368;28;20308;-74
2021/12/04 09:10:21;;;;;;;3.50;3.00;;;;;;;;;;5089765;28;20193;-76
2021/12/04 09:12:50;;;;;;;3.42;2.90;;;;;;;;;;5088735;28;20657;-74
2021/12/04 09:15:19;;;;;;;3.63;3.33;;;;;;;;;;5096412;28;20693;-78
2021/12/04 09:17:46;;;;;;;4.18;3.78;;;;;;;;;;5095886;28;20701;-77
2021/12/04 09:20:16;;;;;;;3.50;3.20;;;;;;;;;;5079787;28;20185;-74
2021/12/04 09:22:44;;;;;;;3.55;3.20;;;;;;;;;;5090894;28;20225;-76
2021/12/04 09:25:14;;;;;;;3.80;3.50;;;;;;;;;;5089793;28;20189;-75
2021/12/04 09:27:55;;;;;;;3.58;3.28;;;;;;;;;;5087288;28;20694;-75
2021/12/04 09:30:46;;;;;;;3.55;3.25;;;;;;;;;;5086958;28;20216;-75
2021/12/04 10:00:19;;;;;;;3.70;3.33;;;;;;;;;;5091584;28;20212;-76
2021/12/04 10:03:07;;;;;;;4.00;3.60;;;;;;;;;;5104006;28;20228;-74
2021/12/04 10:19:31;;;;;;;3.80;3.50;;;;;;;;;;5094094;28;20600;-79
2021/12/04 10:22:05;;;;;;;3.63;3.00;;;;;;;;;;5077795;28;20229;-76
2021/12/04 10:24:48;;;;;;;3.42;2.70;;;;;;;;;;5090255;28;20197;-79
2021/12/04 10:32:55;;;;;;;3.83;3.22;;;;;;;;;;5084241;28;20760;-77
2021/12/04 10:35:23;;;;;;;3.90;3.40;;;;;;;;;;5088209;28;20270;-78
2021/12/04 10:37:53;;;;;;;3.13;2.78;;;;;;;;;;5088945;28;20210;-78
2021/12/04 10:40:23;;;;;;;3.40;2.80;;;;;;;;;;5087613;28;20185;-76
2021/12/04 10:42:54;;;;;;;2.97;2.70;;;;;;;;;;5093997;28;20230;-76
2021/12/04 10:45:31;;;;;;;3.17;2.88;;;;;;;;;;5092578;28;20545;-76
2021/12/04 10:47:59;;;;;;;3.83;3.10;;;;;;;;;;5086197;28;20208;-76
2021/12/04 10:50:33;;;;;;;4.13;2.60;;;;;;;;;;5085408;28;20269;-72
2021/12/04 10:53:02;;;;;;;2.83;2.47;;;;;;;;;;5087329;28;20207;-76
2021/12/04 10:55:38;;;;;;;2.78;2.30;;;;;;;;;;5088146;28;20189;-73
2021/12/04 11:00:55;;;;;;;2.85;2.60;;;;;;;;;;5088130;28;20193;-76
2021/12/04 11:03:32;;;;;;;2.38;2.17;;;;;;;;;;5097694;28;20220;-78
2021/12/04 11:06:31;;;;;;;2.13;1.92;;;;;;;;;;5105464;28;20545;-77
2021/12/04 11:20:21;;;;;;;3.40;2.95;;;;;;;;;;5105271;28;20212;-78
2021/12/04 11:23:01;;;;;;;3.25;2.40;;;;;;;;;;5096438;28;20228;-75
2021/12/04 11:25:40;;;;;;;2.40;2.20;;;;;;;;;;5086232;28;20189;-77
2021/12/04 11:28:18;;;;;;;3.10;2.10;;;;;;;;;;5089271;28;20209;-80
2021/12/04 11:36:21;;;;;;;3.22;2.30;;;;;;;;;;5091305;28;20548;-76
2021/12/04 11:38:52;;;;;;;3.33;3.03;;;;;;;;;;5093037;28;20596;-79
2021/12/04 11:41:27;;;;;;;5.65;3.20;;;;;;;;;;5091789;28;20685;-76
2021/12/04 11:44:02;;;;;;;4.45;2.30;;;;;;;;;;5094118;28;20216;-76
2021/12/04 11:49:15;;;;;;;3.22;2.90;;;;;;;;;;5087500;28;20250;-79
2021/12/04 11:51:55;;;;;;;2.97;2.53;;;;;;;;;;5090199;28;20197;-78
2021/12/04 11:54:23;;;;;;;3.17;2.60;;;;;;;;;;5092724;28;20342;-79
2021/12/04 11:56:58;;;;;;;2.88;2.55;;;;;;;;;;5095437;28;20248;-78
2021/12/04 11:59:28;;;;;;;3.38;3.08;;;;;;;;;;5110211;28;20251;-75
2021/12/04 12:01:56;;;;;;;3.10;2.80;;;;;;;;;;5106285;28;20646;-78
2021/12/04 12:04:32;;;;;;;2.45;2.25;;;;;;;;;;5088772;28;20626;-75
2021/12/04 12:07:10;;;;;;;2.60;2.40;;;;;;;;;;5089361;28;20220;-80
2021/12/04 12:09:39;;;;;;;2.60;2.40;;;;;;;;;;5092982;28;20450;-81
2021/12/04 12:12:08;;;;;;;4.15;2.35;;;;;;;;;;5101789;28;20192;-77
2021/12/04 12:14:39;;;;;;;2.60;2.08;;;;;;;;;;5112744;28;20193;-77
2021/12/04 12:17:07;;;;;;;3.92;3.05;;;;;;;;;;5106885;28;20286;-74
2021/12/04 12:19:38;;;;;;;3.40;2.90;;;;;;;;;;5088865;28;20544;-75
2021/12/04 12:22:11;;;;;;;2.90;2.60;;;;;;;;;;5086946;28;20204;-76
2021/12/04 12:27:27;;;;;;;2.95;2.75;;;;;;;;;;5090368;28;20277;-81
2021/12/04 12:32:49;;;;;;;3.08;2.47;;;;;;;;;;5110115;28;20196;-77
2021/12/04 12:38:02;;;;;;;2.85;2.42;;;;;;;;;;5086190;28;20571;-77
2021/12/04 12:40:29;;;;;;;2.85;2.50;;;;;;;;;;5090834;28;20217;-77
2021/12/04 12:42:57;;;;;;;2.50;2.15;;;;;;;;;;5089920;28;20232;-74
2021/12/04 12:45:29;;;;;;;2.47;2.28;;;;;;;;;;5091280;28;20279;-81
2021/12/04 12:48:00;;;;;;;3.15;2.70;;;;;;;;;;5092199;28;20213;-79
2021/12/04 12:50:28;;;;;;;2.38;2.15;;;;;;;;;;5089820;28;20190;-79
2021/12/04 12:53:05;;;;;;;2.30;2.10;;;;;;;;;;5087512;28;20193;-76
2021/12/04 12:55:35;;;;;;;2.85;2.53;;;;;;;;;;5089308;28;20186;-75
2021/12/04 12:58:12;;;;;;;3.60;2.63;;;;;;;;;;5091581;28;20205;-80
2021/12/04 13:11:44;;;;;;;2.58;2.33;;;;;;;;;;5073427;28;20220;-77
2021/12/04 13:14:12;;;;;;;3.10;2.50;;;;;;;;;;5080247;28;20286;-73
2021/12/04 13:16:42;;;;;;;3.30;2.53;;;;;;;;;;5086797;28;20929;-76
2021/12/04 13:19:12;;;;;;;2.92;2.63;;;;;;;;;;5087360;28;20251;-75
2021/12/04 13:21:40;;;;;;;3.20;2.72;;;;;;;;;;5088940;28;20200;-74
2021/12/04 13:24:10;;;;;;;2.45;2.25;;;;;;;;;;5091627;28;20793;-76
2021/12/04 13:26:39;;;;;;;4.47;2.38;;;;;;;;;;5097706;28;20188;-78
2021/12/04 13:29:08;;;;;;;4.60;2.90;;;;;;;;;;5103695;28;20197;-77
2021/12/04 13:31:38;;;;;;;3.30;3.00;;;;;;;;;;5085559;28;20389;-76
2021/12/04 13:34:07;;;;;;;4.60;2.72;;;;;;;;;;5088641;28;20181;-79
2021/12/04 13:36:35;;;;;;;3.40;2.85;;;;;;;;;;5088563;28;20220;-74
2021/12/04 13:39:04;;;;;;;3.72;3.42;;;;;;;;;;5108543;28;20691;-79
2021/12/04 13:41:32;;;;;;;4.10;3.35;;;;;;;;;;5095028;28;20189;-76
2021/12/04 13:44:00;;;;;;;3.20;2.90;;;;;;;;;;5090979;28;20228;-77
2021/12/04 13:46:27;;;;;;;3.92;3.40;;;;;;;;;;5085581;28;20723;-77
2021/12/04 13:49:00;;;;;;;4.57;2.95;;;;;;;;;;5093015;28;20196;-76
2021/12/04 13:51:29;;;;;;;3.38;3.08;;;;;;;;;;5086467;28;20194;-76
2021/12/04 13:53:56;;;;;;;3.17;2.83;;;;;;;;;;5085213;28;20563;-79
2021/12/04 13:56:24;;;;;;;3.70;2.80;;;;;;;;;;5101230;28;20197;-81
2021/12/04 13:58:54;;;;;;;3.40;3.10;;;;;;;;;;5109298;28;20827;-76
2021/12/04 14:01:21;;;;;;;4.13;3.45;;;;;;;;;;5094698;28;20185;-77
2021/12/04 14:03:49;;;;;;;4.80;3.58;;;;;;;;;;5101680;28;20224;-81
2021/12/04 14:06:17;;;;;;;4.60;3.80;;;;;;;;;;5091241;27;20189;-75
2021/12/04 14:08:56;;;;;;;5.85;3.75;;;;;;;;;;5109813;28;20189;-75
2021/12/04 14:11:28;;;;;;;4.25;3.25;;;;;;;;;;5092410;28;20195;-74
2021/12/04 14:13:55;;;;;;;3.50;3.13;;;;;;;;;;5092946;28;20204;-74
2021/12/04 14:16:24;;;;;;;4.45;3.40;;;;;;;;;;5085015;28;20185;-75
2021/12/04 14:18:51;;;;;;;6.90;3.85;;;;;;;;;;5087525;28;20467;-74
2021/12/04 14:21:18;;;;;;;4.68;3.70;;;;;;;;;;5089213;28;20189;-77
2021/12/04 14:23:49;;;;;;;4.00;3.35;;;;;;;;;;5090461;28;20220;-75
2021/12/04 14:26:16;;;;;;;6.22;4.13;;;;;;;;;;5089461;28;20207;-75
2021/12/04 14:28:45;;;;;;;4.97;4.47;;;;;;;;;;5089689;28;20526;-76
2021/12/04 14:31:12;;;;;;;5.18;4.15;;;;;;;;;;5091159;28;20277;-75
2021/12/04 14:33:42;;;;;;;4.40;3.78;;;;;;;;;;5099349;28;20188;-77
2021/12/04 14:36:11;;;;;;;4.10;3.70;;;;;;;;;;5093497;28;20197;-73
2021/12/04 14:38:44;;;;;;;5.78;4.18;;;;;;;;;;5086008;28;20298;-76
2021/12/04 14:41:12;;;;;;;3.90;3.33;;;;;;;;;;5086679;28;20297;-74
2021/12/04 14:43:40;;;;;;;5.00;4.47;;;;;;;;;;5088011;28;20219;-73
2021/12/04 14:46:09;;;;;;;5.05;4.55;;;;;;;;;;5088254;28;20196;-78
2021/12/04 14:48:37;;;;;;;6.65;4.50;;;;;;;;;;5096544;28;20683;-75
2021/12/04 14:51:06;;;;;;;6.00;4.50;;;;;;;;;;5083542;28;20193;-77
2021/12/04 14:53:34;;;;;;;6.78;4.90;;;;;;;;;;5084598;28;20715;-77
2021/12/04 14:56:04;;;;;;;6.43;5.50;;;;;;;;;;5086173;28;20192;-74
2021/12/04 14:58:33;;;;;;;6.43;4.97;;;;;;;;;;5084115;28;20209;-76
2021/12/04 15:01:01;;;;;;;6.25;5.30;;;;;;;;;;5086585;28;20178;-77
2021/12/04 15:03:31;;;;;;;20.60;12.43;;;;;;;;;;5093370;28;20225;-75
2021/12/04 15:06:02;;;;;;;9.10;6.38;;;;;;;;;;5081661;28;20186;-75
2021/12/04 15:08:32;;;;;;;9.07;5.18;;;;;;;;;;5083763;28;20310;-75
2021/12/04 15:11:01;;;;;;;8.20;6.63;;;;;;;;;;5082804;28;20193;-74
2021/12/04 15:13:30;;;;;;;11.18;8.35;;;;;;;;;;5079620;28;20681;-76
2021/12/04 15:16:03;;;;;;;14.95;9.07;;;;;;;;;;5086077;28;20192;-78
2021/12/04 15:18:32;;;;;;;9.20;7.00;;;;;;;;;;5085281;28;20239;-74
2021/12/04 15:21:01;;;;;;;12.70;6.57;;;;;;;;;;5092961;28;20212;-77
2021/12/04 15:23:30;;;;;;;7.70;5.63;;;;;;;;;;5081499;28;20225;-76
2021/12/04 15:26:00;;;;;;;7.82;6.43;;;;;;;;;;5082438;28;20303;-74
2021/12/04 15:28:28;;;;;;;8.00;6.18;;;;;;;;;;5081965;28;20216;-75
2021/12/04 15:30:58;;;;;;;9.80;7.50;;;;;;;;;;5084839;28;20200;-74
2021/12/04 15:33:29;;;;;;;12.52;7.50;;;;;;;;;;5086124;28;20276;-79
2021/12/04 15:35:56;;;;;;;9.48;6.97;;;;;;;;;;5086514;28;20220;-76
2021/12/04 15:38:38;;;;;;;7.85;6.30;;;;;;;;;;5083391;28;20219;-79
2021/12/04 15:41:13;;;;;;;9.27;6.43;;;;;;;;;;5085079;28;20200;-78
2021/12/04 15:43:53;;;;;;;6.25;5.40;;;;;;;;;;5083525;28;20278;-78
2021/12/04 15:46:28;;;;;;;7.68;5.90;;;;;;;;;;5084377;28;20189;-76
2021/12/04 15:49:23;;;;;;;6.05;5.10;;;;;;;;;;5087613;28;20196;-74
2021/12/04 15:54:37;;;;;;;6.88;5.25;;;;;;;;;;5101409;28;20523;-77
2021/12/04 15:57:10;;;;;;;6.45;4.85;;;;;;;;;;5084828;28;20221;-75
2021/12/04 15:59:38;;;;;;;8.80;3.60;;;;;;;;;;5079878;28;20882;-76
2021/12/04 16:02:11;;;;;;;3.33;3.00;;;;;;;;;;5079356;28;20200;-77
2021/12/04 16:04:40;;;;;;;4.22;3.45;;;;;;;;;;5073520;28;20252;-73
2021/12/04 16:07:08;;;;;;;3.33;3.00;;;;;;;;;;5083923;28;20327;-78
2021/12/04 16:09:37;;;;;;;3.55;2.47;;;;;;;;;;5084272;28;20197;-75
2021/12/04 16:12:06;;;;;;;3.30;2.85;;;;;;;;;;5083620;28;20730;-76
2021/12/04 16:14:34;;;;;;;4.13;2.60;;;;;;;;;;5080609;28;20216;-77
2021/12/04 16:17:03;;;;;;;4.10;2.60;;;;;;;;;;5078774;28;20725;-78
2021/12/04 16:19:32;;;;;;;3.00;2.10;;;;;;;;;;5083112;28;20195;-76
2021/12/04 16:22:02;;;;;;;3.78;2.80;;;;;;;;;;5087024;28;20197;-75
2021/12/04 16:24:30;;;;;;;4.32;3.08;;;;;;;;;;5086302;28;20228;-80
2021/12/04 16:27:03;;;;;;;3.17;2.35;;;;;;;;;;5085925;28;20224;-80
2021/12/04 16:29:32;;;;;;;4.13;2.40;;;;;;;;;;5088507;28;20558;-75
2021/12/04 16:32:17;;;;;;;3.05;2.70;;;;;;;;;;5079212;28;20198;-74
2021/12/04 16:37:40;;;;;;;4.97;3.47;;;;;;;;;;5103307;28;20574;-77
2021/12/04 16:40:09;;;;;;;5.97;5.13;;;;;;;;;;5102626;28;20217;-78
2021/12/04 16:42:37;;;;;;;6.07;5.20;;;;;;;;;;5090301;28;20193;-74
2021/12/04 16:45:05;;;;;;;5.82;4.38;;;;;;;;;;5089838;28;20413;-76
2021/12/04 16:47:33;;;;;;;7.65;5.78;;;;;;;;;;5079765;28;20205;-77
2021/12/04 16:50:00;;;;;;;7.07;6.18;;;;;;;;;;5099944;28;20197;-75
2021/12/04 16:57:58;;;;;;;9.70;7.40;;;;;;;;;;5086590;28;20209;-76
2021/12/04 17:00:26;;;;;;;9.90;6.93;;;;;;;;;;5091815;28;20283;-74
2021/12/04 17:02:53;;;;;;;7.90;6.22;;;;;;;;;;5088656;28;20213;-73
2021/12/04 17:05:20;;;;;;;7.63;6.25;;;;;;;;;;5086575;28;20686;-74
2021/12/04 17:07:49;;;;;;;8.35;5.88;;;;;;;;;;5082200;28;20224;-74
2021/12/04 17:10:16;;;;;;;9.50;6.65;;;;;;;;;;5092111;28;20656;-77
2021/12/04 17:12:43;;;;;;;9.27;6.38;;;;;;;;;;5091962;28;20284;-75
2021/12/04 17:15:12;;;;;;;7.97;6.40;;;;;;;;;;5087213;28;20217;-76
2021/12/04 17:17:43;;;;;;;9.70;7.30;;;;;;;;;;5084901;28;20217;-75
2021/12/04 17:20:11;;;;;;;9.48;6.20;;;;;;;;;;5087767;28;20646;-76
2021/12/04 17:22:39;;;;;;;8.90;6.85;;;;;;;;;;5086786;28;20562;-77
2021/12/04 17:25:08;;;;;;;14.90;9.05;;;;;;;;;;5090665;28;20213;-75
2021/12/04 17:27:36;;;;;;;10.60;7.78;;;;;;;;;;5090998;28;20567;-81